Latest Coastal Weather Observations for Albany Airport

IDW60701

Issued at 5:35 pm WST Friday 24 October 2014 (issued every 10 minutes, with the page automatically refreshed every 10 minutes)

About coastal observations | Map of coastal stations | Coastal observations for WA | Marine services | Other Formats
Station Details ID: 009999 Name: ALBANY AIRPORT Lat: -34.94 Lon: 117.82 Height: 68.4 m
Data from the previous 72 hours. | See also: Recent months at Albany Airport
Date/Time
WST
Temp

°C
Wind Pressure Rain
since 9am
mm
Weather Cloud Vis
km
Sea
Height
m
Swell
Dir
 
Speed
knots
Gust
knots
hPa Trend Height
m
Period
s
Dir
24/05:30pm 16.3 SE 7 10 1015.5 - 0.2 - Partly cloudy 10 - - - -
24/05:00pm 16.5 SE 9 11 1015.4 - 0.2 - Mostly clear 10 - - - -
24/04:30pm 17.9 ESE 9 12 1015.3 - 0.2 - Mostly clear 10 - - - -
24/04:00pm 17.8 ESE 10 13 1015.2 - 0.2 - Partly cloudy 10 - - - -
24/03:30pm 17.3 ESE 11 14 1015.0 - 0.2 - Partly cloudy 10 - - - -
24/03:00pm 18.0 E 11 14 1015.3 F 0.2 Fine Mostly cloudy 30 - - - -
24/02:30pm 17.7 SE 11 14 1015.6 - 0.2 - Mostly clear 10 - - - -
24/02:00pm 17.5 SE 10 13 1015.9 - 0.2 - Mostly clear 10 - - - -
24/01:30pm 18.2 ESE 9 13 1016.1 - 0.2 - Mostly clear 10 - - - -
24/01:00pm 18.5 ESE 10 13 1016.6 - 0.2 - Mostly clear 10 - - - -
24/12:30pm 17.2 SE 8 11 1017.1 - 0.2 - Mostly clear 10 - - - -
24/12:25pm 16.6 ESE 8 11 1017.3 - 0.2 - Mostly clear 10 - - - -
24/12:00pm 16.5 ESE 9 11 1017.7 F 0.2 Showers Mostly cloudy 30 - - - -
24/11:30am 17.0 E 4 6 1017.9 - 0.0 - Mostly clear 10 - - - -
24/11:00am 16.0 NE 7 9 1018.4 - 0.0 - Mostly clear 10 - - - -
24/10:30am 15.7 NE 6 8 1018.4 - 0.0 - Partly cloudy 10 - - - -
24/10:17am 15.9 ENE 7 9 1018.5 - 0.0 - Mostly clear 10 - - - -
24/10:10am 15.5 E 6 8 1018.5 - 0.0 - Mostly clear 10 - - - -
24/10:00am 15.3 E 5 8 1018.7 - 0.0 Showers Mostly clear 7 - - - -
24/09:30am 15.8 E 5 7 1018.5 - 0.0 - Mostly clear 10 - - - -
24/09:08am 15.2 SSE 4 7 1018.5 - 0.0 - Mostly clear 10 - - - -
24/09:00am 15.2 ESE 3 5 1018.5 F 6.2 Distant precip. Mostly cloudy 30 - - - -
24/08:30am 14.5 ESE 4 6 1018.5 - 6.2 - Mostly clear 10 - - - -
24/08:25am 14.4 E 5 7 1018.4 - 6.2 - Mostly clear 10 - - - -
24/08:00am 13.6 E 5 7 1018.6 - 6.2 Showers Mostly clear 6 - - - -
24/07:53am 13.6 ESE 7 9 1018.7 - 6.2 Showers Mostly clear 2 - - - -
24/07:45am 13.9 E 7 10 1018.7 - 6.2 Showers Mostly clear 6 - - - -
24/07:41am 14.0 ENE 6 7 1018.6 - 6.2 Showers Mostly clear 7 - - - -
24/07:30am 14.1 E 4 7 1018.6 - 6.2 - Partly cloudy 10 - - - -
24/07:00am 13.6 CALM 0 0 1018.5 - 6.2 - Mostly clear 10 - - - -
24/06:30am 12.9 CALM 0 0 1018.3 - 6.2 - Mostly clear 10 - - - -
24/06:00am 11.9 SSE 3 4 1018.1 F 6.2 Distant fog Mostly cloudy 20 - - - -
24/05:30am 11.7 S 3 4 1018.1 - 6.2 - Partly cloudy 10 - - - -
24/05:00am 12.5 CALM 0 0 1018.1 - 6.2 - Partly cloudy 10 - - - -
24/04:30am 12.9 CALM 0 0 1018.1 - 6.2 - Partly cloudy 10 - - - -
24/04:00am 12.8 S 3 4 1018.1 - 6.2 - Partly cloudy 10 - - - -
24/03:47am 12.9 S 4 5 1018.1 - 6.2 - Partly cloudy 10 - - - -
24/03:30am 13.2 SSW 3 7 1018.0 - 6.2 - Partly cloudy 10 - - - -
24/03:18am 13.2 CALM 0 0 1018.0 - 6.2 - Partly cloudy 10 - - - -
24/03:00am 13.2 W 3 5 1018.0 - 6.2 - Cloudy 10 - - - -
24/02:55am 13.3 W 4 5 1018.0 - 6.2 - Partly cloudy 10 - - - -
24/02:30am 13.3 WSW 5 7 1018.2 - 6.2 - Partly cloudy 6 - - - -
24/02:19am 13.3 WSW 3 4 1018.2 - 6.0 - Partly cloudy 5 - - - -
24/02:16am 13.3 WSW 3 4 1018.2 - 6.0 - Partly cloudy 10 - - - -
24/02:00am 13.2 WSW 4 6 1018.0 - 6.0 - Partly cloudy 4 - - - -
24/01:45am 13.2 W 4 5 1018.0 - 5.6 - Partly cloudy 6 - - - -
24/01:40am 13.1 W 4 5 1018.1 - 5.6 - Partly cloudy 10 - - - -
24/01:30am 13.1 W 4 4 1018.2 - 5.6 - Partly cloudy 6 - - - -
24/01:19am 13.1 WSW 5 6 1018.1 - 5.6 - Partly cloudy 6 - - - -
24/01:00am 13.1 WSW 4 6 1018.1 - 5.6 - Partly cloudy 10 - - - -
24/12:30am 12.9 W 5 6 1018.1 - 5.6 - Partly cloudy 10 - - - -
24/12:12am 12.8 S 1 4 1018.2 - 5.6 - Partly cloudy 10 - - - -
24/12:00am 12.8 SSW 2 4 1018.3 - 5.6 - Cloudy 10 - - - -
 
Date/Time
WST
Temp

°C
Wind Pressure Rain
since 9am
mm
Weather Cloud Vis
km
Sea
Height
m
Swell
Dir
 
Speed
knots
Gust
knots
hPa Trend Height
m
Period
s
Dir
23/11:58pm 12.7 SW 2 4 1018.2 - 5.6 - Partly cloudy 10 - - - -
23/11:45pm 12.8 WSW 3 4 1018.2 - 5.6 - Partly cloudy 6 - - - -
23/11:30pm 12.0 WNW 5 6 1018.1 - 5.6 - Partly cloudy 10 - - - -
23/11:00pm 12.0 WNW 3 4 1018.0 - 5.6 - Partly cloudy 10 - - - -
23/10:30pm 12.3 WNW 7 8 1018.2 - 5.6 - Cloudy 10 - - - -
23/10:00pm 12.4 W 5 6 1018.1 - 5.6 - Cloudy 10 - - - -
23/09:30pm 11.6 WNW 4 6 1018.1 - 5.6 - Partly cloudy 10 - - - -
23/09:00pm 12.9 SW 4 6 1018.2 - 5.6 - Partly cloudy 10 - - - -
23/08:30pm 13.1 WSW 5 6 1017.9 - 5.6 - - 10 - - - -
23/08:00pm 14.0 WSW 9 11 1017.7 - 5.6 - Cloudy 10 - - - -
23/07:30pm 14.3 WSW 8 11 1017.3 - 5.6 - Cloudy 10 - - - -
23/07:00pm 14.5 SW 11 15 1017.0 - 5.6 - Partly cloudy 10 - - - -
23/06:30pm 14.5 WSW 9 13 1016.7 - 5.6 - Cloudy 10 - - - -
23/06:00pm 14.7 WSW 11 14 1016.1 - 5.6 - Cloudy 10 - - - -
23/05:36pm 14.7 WSW 10 15 1015.7 - 5.6 - Cloudy 10 - - - -
23/05:34pm 14.6 WSW 10 15 1015.6 - 5.6 - Cloudy 10 - - - -
23/05:30pm 14.7 WSW 10 15 1015.6 - 5.6 - Cloudy 10 - - - -
23/05:19pm 14.8 WSW 12 16 1015.4 - 5.6 - Cloudy 6 - - - -
23/05:00pm 15.0 WSW 13 20 1015.2 - 5.6 - Mostly cloudy 10 - - - -
23/04:30pm 15.0 WSW 13 19 1014.8 - 5.6 - Partly cloudy 8 - - - -
23/04:00pm 15.2 WSW 15 23 1014.2 - 5.2 Rain Partly cloudy 2 - - - -
23/03:30pm 15.4 W 13 16 1013.6 - 4.6 Showers Mostly cloudy 3 - - - -
23/03:00pm 15.6 W 13 19 1013.2 R 2.0 Showers Cloudy 1 - - - -
23/02:30pm 15.7 W 15 20 1012.8 - 1.8 Showers Partly cloudy 5 - - - -
23/02:00pm 15.9 W 19 26 1012.4 - 1.2 Showers Mostly cloudy 3 - - - -
23/01:30pm 16.0 W 17 26 1012.1 - 0.6 Showers Mostly cloudy 10 - - - -
23/01:23pm 16.3 W 16 22 1012.1 - 0.2 Showers Mostly cloudy 3 - - - -
23/01:03pm 17.5 W 19 29 1011.7 - 0.2 Showers Partly cloudy 10 - - - -
23/01:00pm 17.6 W 18 27 1011.7 - 0.2 Showers Partly cloudy 10 - - - -
23/12:35pm 17.6 W 16 27 1011.4 - 0.2 - Partly cloudy 10 - - - -
23/12:30pm 18.1 W 15 23 1011.4 - 0.2 Showers Partly cloudy 7 - - - -
23/12:21pm 17.9 W 19 27 1011.3 - 0.2 Showers Partly cloudy 9 - - - -
23/12:00pm 17.6 W 22 30 1011.3 R 0.2 Distant precip. Mostly cloudy 25 - - - -
23/11:57am 17.6 W 22 30 1011.2 - 0.2 - Mostly clear 10 - - - -
23/11:30am 20.0 W 17 24 1010.8 - 0.2 - Mostly clear 10 - - - -
23/11:00am 19.2 W 17 26 1010.7 - 0.2 - Mostly clear 10 - - - -
23/10:30am 20.7 W 14 22 1010.3 - 0.2 - Mostly clear 10 - - - -
23/10:07am 19.8 W 17 27 1010.2 - 0.2 - Mostly clear 10 - - - -
23/10:00am 19.6 WNW 19 27 1010.1 - 0.2 - Mostly clear 10 - - - -
23/09:57am 20.1 WNW 17 27 1010.1 - 0.2 - Mostly clear 10 - - - -
23/09:30am 20.1 WNW 19 26 1009.7 - 0.0 - Mostly cloudy 10 - - - -
23/09:00am 19.3 WNW 19 25 1009.6 F 16.4 Fine Mostly cloudy 30 - - - -
23/08:30am 18.6 WNW 19 26 1009.4 - 16.4 - Mostly clear 10 - - - -
23/08:00am 18.0 WNW 18 24 1009.4 - 16.4 - Mostly clear 10 - - - -
23/07:30am 17.4 WNW 14 19 1009.3 - 16.4 - Mostly clear 10 - - - -
23/07:00am 16.3 WNW 13 18 1009.3 - 16.4 - Mostly clear 10 - - - -
23/06:30am 15.5 WNW 15 20 1009.2 - 16.4 - Mostly clear 10 - - - -
23/06:00am 15.6 WNW 13 16 1009.2 F 16.4 Fine Mostly cloudy 30 - - - -
23/05:30am 15.6 WNW 11 15 1008.9 - 16.4 - Cloudy 10 - - - -
23/05:00am 15.8 WNW 12 15 1008.8 - 16.4 - Cloudy 10 - - - -
23/04:30am 16.0 WNW 13 19 1008.7 - 16.4 - Partly cloudy 10 - - - -
23/04:00am 15.8 WNW 13 17 1008.4 - 16.4 - Partly cloudy 10 - - - -
23/03:32am 15.9 WSW 12 17 1008.1 - 16.4 - Partly cloudy 9 - - - -
23/03:30am 15.9 W 13 18 1008.2 - 16.4 - Partly cloudy 8 - - - -
23/03:29am 15.9 W 13 18 1008.2 - 16.4 - Partly cloudy 8 - - - -
23/03:00am 15.9 WNW 9 11 1008.7 - 16.0 - Cloudy 4 - - - -
23/02:30am 16.1 WNW 6 7 1008.5 - 16.0 - Partly cloudy 6 - - - -
23/02:05am 15.8 WNW 4 9 1008.8 - 15.8 - Partly cloudy 5 - - - -
23/02:00am 15.7 SSE 1 5 1008.7 - 15.8 - Partly cloudy 6 - - - -
23/01:57am 15.6 SSE 1 5 1008.6 - 15.8 - Partly cloudy 6 - - - -
23/01:30am 16.2 SSW 4 5 1009.0 - 15.8 - Partly cloudy 7 - - - -
23/01:16am 16.2 SSW 4 5 1009.1 - 15.8 - Partly cloudy 8 - - - -
23/01:00am 16.2 SSW 4 5 1009.1 - 15.8 - Partly cloudy 6 - - - -
23/12:38am 16.4 SW 6 9 1009.6 - 15.2 - Partly cloudy 6 - - - -
23/12:30am 16.2 NW 3 7 1009.9 - 14.8 - Partly cloudy 9 - - - -
23/12:10am 16.0 E 6 7 1009.9 - 14.4 - Partly cloudy 10 - - - -
23/12:00am 15.8 E 6 7 1010.2 - 14.4 - Cloudy 5 - - - -
 
Date/Time
WST
Temp

°C
Wind Pressure Rain
since 9am
mm
Weather Cloud Vis
km
Sea
Height
m
Swell
Dir
 
Speed
knots
Gust
knots
hPa Trend Height
m
Period
s
Dir
22/11:50pm 16.2 SE 3 5 1010.1 - 14.2 - Partly cloudy 4 - - - -
22/11:49pm 16.2 SE 3 5 1010.1 - 13.6 - Partly cloudy 7 - - - -
22/11:30pm 16.1 S 5 9 1010.6 - 12.4 - Partly cloudy 3 - - - -
22/11:00pm 16.3 WNW 8 10 1011.8 - 9.2 - Partly cloudy 5 - - - -
22/10:59pm 16.3 NW 8 10 1011.8 - 9.2 - Partly cloudy 6 - - - -
22/10:48pm 16.3 ENE 5 9 1011.4 - 8.4 - Partly cloudy 10 - - - -
22/10:30pm 16.3 S 5 8 1010.8 - 8.4 - Partly cloudy 0.9 - - - -
22/10:25pm 16.8 SE 4 6 1011.7 - 4.0 - Partly cloudy 6 - - - -
22/10:08pm 17.4 E 7 13 1011.8 - 3.4 - Partly cloudy 10 - - - -
22/10:00pm 17.5 E 9 13 1011.9 - 3.4 - Partly cloudy 10 - - - -
22/09:49pm 17.0 S 15 21 1010.4 - 3.2 - Partly cloudy 5 - - - -
22/09:40pm 16.8 WNW 16 27 1013.2 - 1.4 - Partly cloudy 10 - - - -
22/09:39pm 16.8 WNW 15 22 1013.2 - 1.4 - Partly cloudy 10 - - - -
22/09:30pm 16.7 SE 10 14 1011.1 - 1.4 - Partly cloudy 10 - - - -
22/09:17pm 16.8 SSE 3 8 1011.7 - 1.4 - Partly cloudy 10 - - - -
22/09:00pm 17.0 ENE 7 11 1012.5 - 1.4 - Cloudy 10 - - - -
22/08:43pm 16.9 ESE 10 13 1011.8 - 1.4 - Partly cloudy 10 - - - -
22/08:30pm 17.1 SE 11 14 1012.7 - 1.4 - Partly cloudy 10 - - - -
22/08:16pm 16.9 SW 14 16 1013.4 - 1.4 - Partly cloudy 10 - - - -
22/08:11pm 16.8 WNW 20 25 1015.0 - 1.4 - Partly cloudy 10 - - - -
22/08:08pm 16.8 NW 18 28 1014.8 - 1.4 - Partly cloudy 10 - - - -
22/08:07pm 16.9 NW 16 21 1014.5 - 1.4 - Partly cloudy 10 - - - -
22/08:00pm 16.8 E 11 14 1012.0 - 1.4 - Partly cloudy 10 - - - -
22/07:30pm 16.5 ESE 13 16 1010.6 - 1.4 - Partly cloudy 10 - - - -
22/07:24pm 16.5 ESE 13 16 1010.6 - 1.4 - Partly cloudy 10 - - - -
22/07:06pm 16.6 E 15 23 1010.7 - 1.2 - Partly cloudy 6 - - - -
22/07:00pm 16.7 E 11 16 1011.3 - 0.8 - Partly cloudy 10 - - - -
22/06:30pm 16.9 E 13 16 1011.9 - 0.2 - Partly cloudy 9 - - - -
22/06:00pm 17.4 ENE 15 20 1012.6 - 0.0 - Partly cloudy 10 - - - -
22/05:30pm 17.6 E 13 19 1010.9 - 0.0 - - 10 - - - -
22/05:00pm 18.1 E 13 19 1010.8 - 0.0 - Mostly clear 10 - - - -
22/04:30pm 19.0 E 15 20 1010.8 - 0.0 - Mostly clear 10 - - - -
22/04:00pm 20.4 ENE 16 22 1012.2 - 0.0 - Mostly clear 10 - - - -
22/03:30pm 20.8 E 18 24 1012.7 - 0.0 - Mostly clear 10 - - - -
22/03:00pm 21.4 E 16 20 1013.3 F 0.0 Fine Mostly clear 30 - - - -
22/02:30pm 21.5 ENE 17 22 1013.7 - 0.0 - Mostly clear 10 - - - -
22/02:00pm 21.5 E 17 21 1014.5 - 0.0 - Mostly clear 10 - - - -
22/01:30pm 21.3 E 17 24 1014.9 - 0.0 - Mostly clear 10 - - - -
22/01:00pm 21.2 E 15 21 1016.0 - 0.0 - Mostly clear 10 - - - -
22/12:30pm 21.3 E 17 22 1016.6 - 0.0 - Mostly clear 10 - - - -
22/12:00pm 21.3 ENE 16 21 1017.4 F 0.0 Fine Partly cloudy 30 - - - -
22/11:30am 20.7 E 14 19 1017.8 - 0.0 - Partly cloudy 10 - - - -
22/11:00am 19.0 E 14 20 1018.4 - 0.0 - Mostly cloudy 10 - - - -
22/10:30am 18.9 ENE 12 17 1019.4 - 0.0 - Mostly cloudy 10 - - - -
22/10:00am 18.9 ENE 12 17 1019.4 - 0.0 - Mostly cloudy 10 - - - -
22/09:30am 17.8 E 14 17 1019.8 - 0.0 - Mostly cloudy 10 - - - -
22/09:00am 17.7 ENE 12 15 1020.4 F 0.0 Fine Mostly cloudy 30 - - - -
22/08:30am 17.3 ENE 13 18 1020.4 - 0.0 - Mostly cloudy 10 - - - -
22/08:00am 16.1 ENE 11 16 1020.5 - 0.0 - Mostly cloudy 10 - - - -
22/07:30am 15.4 E 9 13 1020.7 - 0.0 - Mostly cloudy 10 - - - -
22/07:00am 14.4 E 8 13 1020.8 - 0.0 - Mostly cloudy 10 - - - -
22/06:30am 13.3 E 6 7 1020.9 - 0.0 - Mostly cloudy 10 - - - -
22/06:00am 13.0 ENE 9 11 1021.0 F 0.0 Fine Mostly cloudy 25 - - - -
22/05:30am 12.2 E 7 8 1021.0 - 0.0 - Cloudy 10 - - - -
22/05:00am 11.9 ENE 7 9 1020.9 - 0.0 - Cloudy 10 - - - -
22/04:30am 11.5 ENE 6 7 1021.0 - 0.0 - Cloudy 10 - - - -
22/04:00am 11.4 ENE 7 8 1021.2 - 0.0 - Cloudy 10 - - - -
22/03:30am 10.7 E 7 8 1021.3 - 0.0 - Cloudy 10 - - - -
22/03:00am 9.9 E 5 6 1021.5 - 0.0 - Cloudy 10 - - - -
22/02:30am 9.0 ENE 6 7 1021.7 - 0.0 - Partly cloudy 10 - - - -
22/02:00am 9.7 ENE 5 7 1021.8 - 0.0 - - 10 - - - -
22/01:30am 9.1 E 7 9 1021.8 - 0.0 - - 10 - - - -
22/01:00am 9.1 ENE 8 9 1021.8 - 0.0 - - 10 - - - -
22/12:30am 9.0 ENE 6 6 1022.2 - 0.0 - - 10 - - - -
22/12:00am 9.5 ENE 6 7 1022.7 - 0.0 - - 10 - - - -
 
Date/Time
WST
Temp

°C
Wind Pressure Rain
since 9am
mm
Weather Cloud Vis
km
Sea
Height
m
Swell
Dir
 
Speed
knots
Gust
knots
hPa Trend Height
m
Period
s
Dir
21/11:30pm 9.2 ENE 6 7 1022.7 - 0.0 - - 10 - - - -
21/11:00pm 9.3 E 5 6 1023.0 - 0.0 - - 10 - - - -
21/10:30pm 8.8 ENE 5 5 1023.4 - 0.0 - - 10 - - - -
21/10:00pm 9.3 E 5 7 1023.7 - 0.0 - - 10 - - - -
21/09:30pm 9.0 NE 5 6 1024.0 - 0.0 - - 10 - - - -
21/09:00pm 10.0 E 4 5 1024.2 - 0.0 - - 10 - - - -
21/08:30pm 10.6 ESE 4 4 1024.5 - 0.0 - - 10 - - - -
21/08:00pm 10.3 ESE 5 6 1024.2 - 0.0 - - 10 - - - -
21/07:30pm 10.8 ESE 5 6 1024.1 - 0.0 - - 10 - - - -
21/07:00pm 12.5 SE 4 5 1023.9 - 0.0 - - 10 - - - -
21/06:30pm 13.0 S 6 8 1023.5 - 0.0 - - 10 - - - -
21/06:00pm 14.3 SSE 7 9 1023.3 - 0.0 - - 10 - - - -

Other Formats:

Comma delimited format used in spreadsheet applications
http://www.bom.gov.au/fwo/IDW60701/IDW60701.94802.axf

JavaScript Object Notation format (JSON) in row-major order
http://www.bom.gov.au/fwo/IDW60701/IDW60701.94802.json